Time;durP1;ratioP1;P1;durP2;ratioP2;P2;SDS_P1;SDS_P2;PMS_P1;PMS_P2;Temp;Humidity;BMP_temperature;BMP_pressure;BME280_temperature;BME280_humidity;BME280_pressure;Samples;Min_cycle;Max_cycle;Signal;HPM_P1;HPM_P2
2022/04/01 00:00:39;;;;;;;15.50;12.80;;;;;;;0.70;100.00;97064.14;105317;1268;69323;-74
2022/04/01 00:03:06;;;;;;;15.20;13.60;;;;;;;0.68;100.00;97055.69;105253;1269;74081;-74
2022/04/01 00:05:33;;;;;;;15.40;13.90;;;;;;;0.68;100.00;97055.70;105285;1268;61272;-75
2022/04/01 00:08:00;;;;;;;14.10;12.60;;;;;;;0.68;100.00;97056.39;105270;1268;62080;-75
2022/04/01 00:10:27;;;;;;;14.00;12.60;;;;;;;0.67;100.00;97052.23;105244;1270;75358;-74
2022/04/01 00:12:55;;;;;;;16.10;14.40;;;;;;;0.66;100.00;97050.88;105298;1271;70251;-75
2022/04/01 00:15:22;;;;;;;14.10;12.70;;;;;;;0.66;100.00;97048.47;105260;1271;74681;-76
2022/04/01 00:17:49;;;;;;;14.40;13.00;;;;;;;0.66;100.00;97046.19;105260;1269;61272;-76
2022/04/01 00:20:18;;;;;;;14.60;12.50;;;;;;;0.65;100.00;97043.07;105267;1271;62117;-74
2022/04/01 00:22:46;;;;;;;14.10;12.70;;;;;;;0.66;100.00;97042.16;104986;1271;75205;-74
2022/04/01 00:25:14;;;;;;;14.20;12.80;;;;;;;0.66;100.00;97041.83;105311;1271;70431;-75
2022/04/01 00:27:41;;;;;;;13.90;12.60;;;;;;;0.66;100.00;97034.84;105301;1271;72895;-73
2022/04/01 00:30:08;;;;;;;14.40;12.60;;;;;;;0.66;100.00;97033.61;105075;1269;61278;-71
2022/04/01 00:32:35;;;;;;;14.00;12.60;;;;;;;0.67;100.00;97034.23;105036;1271;61356;-75
2022/04/01 00:35:02;;;;;;;13.20;11.90;;;;;;;0.69;100.00;97034.48;105359;1271;75268;-75
2022/04/01 00:37:29;;;;;;;14.40;13.00;;;;;;;0.69;100.00;97030.83;105319;1269;70410;-74
2022/04/01 00:39:56;;;;;;;15.00;13.40;;;;;;;0.68;100.00;97030.16;105290;1270;74520;-72
2022/04/01 00:42:23;;;;;;;14.20;12.70;;;;;;;0.68;100.00;97028.05;105227;1271;61412;-74
2022/04/01 00:44:50;;;;;;;14.10;12.60;;;;;;;0.70;100.00;97027.45;105270;1271;61246;-74
2022/04/01 00:47:17;;;;;;;14.20;12.70;;;;;;;0.71;100.00;97031.07;105269;1271;75326;-74
2022/04/01 00:49:45;;;;;;;15.40;13.80;;;;;;;0.70;100.00;97033.20;105317;1271;69951;-75
2022/04/01 00:52:15;;;;;;;13.50;11.80;;;;;;;0.69;100.00;97038.36;105388;1270;74446;-74
2022/04/01 00:54:42;;;;;;;13.00;11.70;;;;;;;0.68;100.00;97033.16;105281;1271;61416;-74
2022/04/01 00:57:13;;;;;;;11.80;10.60;;;;;;;0.67;100.00;97034.08;105148;1269;232668;-74
2022/04/01 00:59:41;;;;;;;13.90;12.50;;;;;;;0.67;100.00;97037.60;105381;1271;74919;-76
2022/04/01 01:02:08;;;;;;;12.50;11.20;;;;;;;0.67;100.00;97037.39;105476;1269;70342;-74
2022/04/01 01:04:36;;;;;;;12.90;11.50;;;;;;;0.69;100.00;97032.07;105331;1271;74104;-75
2022/04/01 01:07:03;;;;;;;14.40;13.00;;;;;;;0.68;100.00;97033.67;105264;1271;61287;-74
2022/04/01 01:09:30;;;;;;;15.30;13.80;;;;;;;0.68;100.00;97030.33;105393;1271;61282;-75
2022/04/01 01:11:56;;;;;;;16.10;14.50;;;;;;;0.68;100.00;97025.98;105274;1268;75447;-74
2022/04/01 01:14:33;;;;;;;14.40;12.90;;;;;;;0.69;100.00;97024.35;105303;1270;69961;-74
2022/04/01 01:17:02;;;;;;;15.40;13.70;;;;;;;0.70;100.00;97018.89;105585;1270;73958;-74
2022/04/01 01:19:32;;;;;;;14.10;12.80;;;;;;;0.71;100.00;97020.19;105267;1269;61281;-74
2022/04/01 01:21:59;;;;;;;14.70;13.10;;;;;;;0.71;100.00;97020.40;105221;1271;62568;-75
2022/04/01 01:24:35;;;;;;;13.40;12.10;;;;;;;0.72;100.00;97020.52;105281;1270;74710;-76
2022/04/01 01:27:05;;;;;;;12.70;11.50;;;;;;;0.72;100.00;97018.75;105280;1271;68826;-74
2022/04/01 01:29:34;;;;;;;13.30;12.10;;;;;;;0.70;100.00;97015.58;105421;1268;72884;-74
2022/04/01 01:32:05;;;;;;;13.40;12.10;;;;;;;0.68;100.00;97008.89;105285;1269;61355;-75
2022/04/01 01:34:32;;;;;;;13.00;11.80;;;;;;;0.68;100.00;97010.46;105283;1270;61218;-74
2022/04/01 01:37:01;;;;;;;13.70;12.40;;;;;;;0.67;100.00;97006.85;105247;1270;75320;-74
2022/04/01 01:39:29;;;;;;;14.70;13.20;;;;;;;0.65;100.00;97003.95;105439;1271;68768;-75
2022/04/01 01:41:56;;;;;;;14.10;12.70;;;;;;;0.66;100.00;97000.78;105296;1270;73425;-74
2022/04/01 01:44:24;;;;;;;14.30;12.90;;;;;;;0.65;100.00;96996.61;105500;1271;61401;-74
2022/04/01 01:46:52;;;;;;;13.40;12.10;;;;;;;0.64;100.00;96995.09;105532;1268;62045;-75
2022/04/01 01:49:20;;;;;;;14.90;13.50;;;;;;;0.63;100.00;96991.66;105296;1271;76394;-74
2022/04/01 01:54:52;;;;;;;13.00;11.30;;;;;;;0.64;100.00;96987.08;105266;1271;74485;-75
2022/04/01 01:57:24;;;;;;;13.40;11.00;;;;;;;0.62;100.00;96994.17;105300;1268;61304;-75
2022/04/01 01:59:52;;;;;;;11.70;10.60;;;;;;;0.61;100.00;96993.89;105078;1271;62115;-76
2022/04/01 02:02:20;;;;;;;13.30;11.80;;;;;;;0.59;100.00;96996.10;105326;1271;75391;-74
2022/04/01 02:04:47;;;;;;;13.10;11.80;;;;;;;0.56;100.00;96992.80;105312;1270;70382;-74
2022/04/01 02:07:14;;;;;;;14.90;13.40;;;;;;;0.54;100.00;96994.08;105234;1271;74412;-71
2022/04/01 02:09:43;;;;;;;15.80;14.30;;;;;;;0.56;100.00;96990.70;105283;1271;61350;-75
2022/04/01 02:12:10;;;;;;;13.40;12.00;;;;;;;0.57;100.00;96985.02;105300;1268;61269;-74
2022/04/01 02:14:37;;;;;;;19.50;17.40;;;;;;;0.55;100.00;96979.89;105227;1268;76615;-74
2022/04/01 02:17:04;;;;;;;19.60;17.70;;;;;;;0.57;100.00;96979.98;105304;1269;69442;-75
2022/04/01 02:19:31;;;;;;;22.20;19.90;;;;;;;0.58;100.00;96976.57;105261;1269;73419;-76
2022/04/01 02:21:58;;;;;;;19.50;17.50;;;;;;;0.59;100.00;96979.14;105315;1271;61311;-74
2022/04/01 02:24:26;;;;;;;19.70;17.60;;;;;;;0.58;100.00;96976.06;105018;1271;61208;-74
2022/04/01 02:26:52;;;;;;;17.70;15.90;;;;;;;0.58;100.00;96974.67;105268;1271;75193;-75
2022/04/01 02:29:21;;;;;;;17.10;15.40;;;;;;;0.58;100.00;96971.00;105280;1269;69366;-74
2022/04/01 02:31:50;;;;;;;17.20;15.40;;;;;;;0.58;100.00;96973.29;105287;1269;73382;-74
2022/04/01 02:34:18;;;;;;;16.50;14.70;;;;;;;0.57;100.00;96971.40;105393;1269;61186;-74
2022/04/01 02:36:45;;;;;;;14.20;12.90;;;;;;;0.56;100.00;96972.19;105258;1271;62041;-74
2022/04/01 02:39:12;;;;;;;16.40;14.80;;;;;;;0.53;100.00;96967.95;105314;1271;76419;-74
2022/04/01 02:41:39;;;;;;;15.80;14.20;;;;;;;0.55;100.00;96971.36;105274;1270;70168;-74
2022/04/01 02:44:09;;;;;;;15.50;14.00;;;;;;;0.55;100.00;96969.96;105263;1270;73407;-74
2022/04/01 02:46:38;;;;;;;16.60;14.90;;;;;;;0.53;100.00;96968.17;105295;1270;61388;-75
2022/04/01 02:49:06;;;;;;;16.90;15.20;;;;;;;0.54;100.00;96970.16;105307;1271;61278;-74
2022/04/01 02:51:39;;;;;;;17.10;15.40;;;;;;;0.54;100.00;96972.09;105297;1271;75639;-75
2022/04/01 02:54:07;;;;;;;16.00;14.40;;;;;;;0.55;100.00;96972.41;105250;1271;70369;-74
2022/04/01 02:56:35;;;;;;;16.80;15.10;;;;;;;0.55;100.00;96970.98;105409;1269;73863;-72
2022/04/01 02:59:07;;;;;;;16.30;14.60;;;;;;;0.56;100.00;96973.39;105353;1271;61295;-74
2022/04/01 03:01:38;;;;;;;18.00;16.10;;;;;;;0.57;100.00;96974.91;105355;1271;61313;-72
2022/04/01 03:04:10;;;;;;;16.20;14.50;;;;;;;0.57;100.00;96975.56;105297;1270;76450;-74
2022/04/01 03:06:42;;;;;;;16.60;14.90;;;;;;;0.58;100.00;96972.94;105283;1270;70381;-74
2022/04/01 03:09:09;;;;;;;15.80;14.20;;;;;;;0.57;100.00;96969.29;105318;1270;71765;-75
2022/04/01 03:11:36;;;;;;;16.10;14.50;;;;;;;0.58;100.00;96958.26;104585;1270;1003153;-74
2022/04/01 03:14:04;;;;;;;17.50;15.80;;;;;;;0.58;100.00;96951.42;105132;1271;62886;-74
2022/04/01 03:16:31;;;;;;;17.80;16.00;;;;;;;0.57;100.00;96948.36;105500;1269;75440;-75
2022/04/01 03:18:59;;;;;;;17.60;15.80;;;;;;;0.57;100.00;96946.59;105336;1271;70076;-74
2022/04/01 03:21:26;;;;;;;18.30;16.50;;;;;;;0.57;100.00;96947.98;105230;1271;74454;-75
2022/04/01 03:23:53;;;;;;;17.10;15.30;;;;;;;0.56;100.00;96951.69;105237;1271;61298;-74
2022/04/01 03:26:20;;;;;;;17.70;15.80;;;;;;;0.56;100.00;96952.63;105268;1270;61565;-74
2022/04/01 03:28:48;;;;;;;16.50;14.80;;;;;;;0.56;100.00;96958.35;105339;1270;73980;-74
2022/04/01 03:31:16;;;;;;;16.80;15.00;;;;;;;0.55;100.00;96961.04;105301;1269;70348;-75
2022/04/01 03:33:42;;;;;;;15.70;14.10;;;;;;;0.56;100.00;96965.71;105380;1268;73602;-76
2022/04/01 03:36:11;;;;;;;16.60;14.60;;;;;;;0.55;100.00;96969.03;105405;1271;61311;-75
2022/04/01 03:38:38;;;;;;;15.50;13.90;;;;;;;0.55;100.00;96968.38;105372;1271;61275;-74
2022/04/01 03:41:06;;;;;;;14.00;12.60;;;;;;;0.53;100.00;96969.36;105031;1271;76523;-75
2022/04/01 03:43:35;;;;;;;13.70;12.30;;;;;;;0.53;100.00;96967.95;105358;1269;68649;-75
2022/04/01 03:46:10;;;;;;;14.50;13.00;;;;;;;0.54;100.00;96976.10;105216;1269;73402;-74
2022/04/01 03:48:55;;;;;;;15.40;13.80;;;;;;;0.56;100.00;96978.13;105425;1268;61285;-75
2022/04/01 03:51:25;;;;;;;13.40;12.10;;;;;;;0.58;100.00;96973.63;105374;1268;61963;-74
2022/04/01 03:53:57;;;;;;;14.40;13.00;;;;;;;0.59;100.00;96972.48;105592;1268;76089;-74
2022/04/01 03:56:32;;;;;;;14.40;12.80;;;;;;;0.60;100.00;96973.31;105442;1268;70706;-73
2022/04/01 03:59:04;;;;;;;15.20;13.60;;;;;;;0.60;100.00;96971.38;105295;1269;73954;-74
2022/04/01 04:01:32;;;;;;;15.60;14.10;;;;;;;0.61;100.00;96971.69;105380;1270;61304;-75
2022/04/01 04:04:00;;;;;;;16.80;15.10;;;;;;;0.62;100.00;96973.21;105395;1268;61334;-75
2022/04/01 04:06:27;;;;;;;17.40;15.60;;;;;;;0.63;100.00;96978.91;105507;1268;76324;-74
2022/04/01 04:08:56;;;;;;;19.60;17.60;;;;;;;0.62;100.00;96976.86;105345;1268;70293;-75
2022/04/01 04:11:25;;;;;;;20.40;18.40;;;;;;;0.62;100.00;96977.77;105286;1268;73473;-74
2022/04/01 04:13:53;;;;;;;18.80;16.80;;;;;;;0.60;100.00;96976.13;105271;1268;61249;-75
2022/04/01 04:16:38;;;;;;;20.90;18.80;;;;;;;0.58;100.00;96983.77;105232;1271;61245;-77
2022/04/01 04:19:21;;;;;;;21.10;18.90;;;;;;;0.57;100.00;96985.19;105032;1271;75639;-76
2022/04/01 04:21:55;;;;;;;23.20;20.90;;;;;;;0.56;100.00;96995.25;105238;1271;70752;-75
2022/04/01 04:24:30;;;;;;;25.70;23.00;;;;;;;0.55;100.00;96993.02;105000;1271;74469;-75
2022/04/01 04:27:17;;;;;;;22.50;20.30;;;;;;;0.56;100.00;96993.84;105472;1269;61301;-77
2022/04/01 04:29:50;;;;;;;21.50;19.30;;;;;;;0.56;100.00;96993.32;105057;1271;61756;-75
2022/04/01 04:32:32;;;;;;;17.90;16.20;;;;;;;0.53;100.00;96994.17;105163;1270;76014;-75
2022/04/01 04:35:04;;;;;;;94.10;51.20;;;;;;;0.53;100.00;96994.56;105271;1270;68946;-72
2022/04/01 04:37:35;;;;;;;54.80;33.10;;;;;;;0.54;100.00;96990.48;104942;1271;73525;-75
2022/04/01 04:40:04;;;;;;;27.50;20.90;;;;;;;0.52;100.00;96990.92;105023;1271;61450;-75
2022/04/01 04:42:32;;;;;;;50.50;30.80;;;;;;;0.52;100.00;96991.27;105313;1269;61161;-74
2022/04/01 04:44:59;;;;;;;48.80;33.10;;;;;;;0.53;100.00;96994.03;105147;1271;76383;-74
2022/04/01 04:47:28;;;;;;;94.90;54.40;;;;;;;0.53;100.00;96991.77;105107;1271;69409;-75
2022/04/01 04:49:57;;;;;;;49.10;34.20;;;;;;;0.53;100.00;96991.24;105287;1271;73448;-76
2022/04/01 04:52:32;;;;;;;26.70;20.40;;;;;;;0.56;100.00;96994.38;105106;1271;61283;-76
2022/04/01 04:55:00;;;;;;;27.10;19.80;;;;;;;0.58;100.00;96995.45;105316;1271;61252;-74
2022/04/01 04:57:28;;;;;;;22.60;18.30;;;;;;;0.59;100.00;96992.77;105331;1270;76469;-73
2022/04/01 04:59:58;;;;;;;22.70;17.80;;;;;;;0.62;100.00;96998.20;105345;1269;69451;-74
2022/04/01 05:02:42;;;;;;;17.50;15.70;;;;;;;0.64;100.00;96998.79;105396;1271;73507;-75
2022/04/01 05:05:31;;;;;;;17.30;15.70;;;;;;;0.65;100.00;97005.34;105149;1271;61396;-74
2022/04/01 05:08:05;;;;;;;17.80;16.00;;;;;;;0.67;100.00;97005.79;105257;1270;61348;-74
2022/04/01 05:10:53;;;;;;;16.60;15.00;;;;;;;0.70;100.00;97009.26;105259;1271;75926;-74
2022/04/01 05:13:31;;;;;;;19.40;17.50;;;;;;;0.72;100.00;97007.05;105508;1268;69341;-74
2022/04/01 05:16:06;;;;;;;21.00;19.10;;;;;;;0.75;100.00;97003.89;105299;1269;71825;-75
2022/04/01 05:18:45;;;;;;;20.60;18.60;;;;;;;0.78;100.00;97002.81;105310;1268;61291;-75
2022/04/01 05:21:19;;;;;;;18.30;16.80;;;;;;;0.79;100.00;97003.10;105276;1268;61142;-74
2022/04/01 05:23:58;;;;;;;19.90;18.00;;;;;;;0.82;100.00;97001.94;105315;1268;76309;-74
2022/04/01 05:26:40;;;;;;;18.00;16.30;;;;;;;0.83;100.00;97009.02;105317;1271;69459;-74
2022/04/01 05:29:18;;;;;;;18.30;16.60;;;;;;;0.84;100.00;97004.02;105333;1268;73636;-74
2022/04/01 05:31:54;;;;;;;19.50;17.70;;;;;;;0.86;100.00;97002.16;105281;1271;61265;-74
2022/04/01 05:34:43;;;;;;;19.80;18.00;;;;;;;0.91;100.00;97001.38;105305;1271;61380;-75
2022/04/01 05:37:10;;;;;;;22.40;20.20;;;;;;;0.96;100.00;97004.59;105317;1268;76323;-73
2022/04/01 05:39:40;;;;;;;21.80;19.80;;;;;;;1.00;100.00;97005.55;105039;1271;69973;-74
2022/04/01 05:42:07;;;;;;;22.50;20.30;;;;;;;1.05;100.00;97009.79;105415;1269;74421;-74
2022/04/01 05:44:36;;;;;;;23.60;21.20;;;;;;;1.11;100.00;97013.79;105282;1271;61275;-74
2022/04/01 05:47:04;;;;;;;22.40;20.40;;;;;;;1.16;100.00;97018.41;105295;1268;61217;-73
2022/04/01 05:49:30;;;;;;;24.50;22.10;;;;;;;1.20;100.00;97018.31;105300;1270;75403;-74
2022/04/01 05:51:58;;;;;;;22.00;19.80;;;;;;;1.26;100.00;97017.09;105296;1269;70656;-72
2022/04/01 05:54:26;;;;;;;21.90;19.90;;;;;;;1.31;100.00;97015.02;105651;1268;73500;-74
2022/04/01 05:56:53;;;;;;;21.40;19.50;;;;;;;1.39;100.00;97018.04;105388;1268;61179;-74
2022/04/01 05:59:22;;;;;;;21.60;19.60;;;;;;;1.47;100.00;97009.33;105042;1272;61425;-76
2022/04/01 06:02:07;;;;;;;19.10;17.40;;;;;;;1.58;100.00;97003.75;105308;1271;75966;-75
2022/04/01 06:04:52;;;;;;;19.60;17.80;;;;;;;1.70;100.00;97006.98;105281;1268;70378;-74
2022/04/01 06:07:28;;;;;;;18.40;16.80;;;;;;;1.85;100.00;97005.67;105344;1268;74436;-74
2022/04/01 06:10:29;;;;;;;17.30;15.90;;;;;;;1.97;100.00;97011.08;105394;1268;61257;-73
2022/04/01 06:13:17;;;;;;;19.20;17.50;;;;;;;2.08;100.00;97011.42;104737;1277;62386;-74
2022/04/01 06:16:05;;;;;;;18.80;17.20;;;;;;;2.14;100.00;97013.30;104407;1277;75454;-75
2022/04/01 06:18:50;;;;;;;16.60;15.30;;;;;;;2.16;100.00;97008.77;104702;1277;69443;-75
2022/04/01 06:21:24;;;;;;;19.10;17.50;;;;;;;2.20;100.00;97009.23;104790;1276;73612;-74
2022/04/01 06:24:08;;;;;;;19.10;17.40;;;;;;;2.21;100.00;97010.20;104749;1277;61474;-72
2022/04/01 06:26:42;;;;;;;18.80;17.20;;;;;;;2.18;100.00;97015.61;104802;1277;61301;-74
2022/04/01 06:29:39;;;;;;;20.10;18.30;;;;;;;2.17;100.00;97012.52;104783;1277;75343;-73
2022/04/01 06:32:15;;;;;;;21.80;19.90;;;;;;;2.12;100.00;97017.30;104786;1277;68794;-73
2022/04/01 06:35:03;;;;;;;20.90;19.00;;;;;;;2.08;100.00;97021.77;104738;1277;74750;-73
2022/04/01 06:37:36;;;;;;;24.30;22.00;;;;;;;2.05;100.00;97021.54;104551;1277;61508;-74
2022/04/01 06:40:06;;;;;;;22.90;20.90;;;;;;;2.05;100.00;97021.06;104905;1277;61240;-73
2022/04/01 06:42:37;;;;;;;23.90;21.70;;;;;;;2.05;100.00;97024.06;104749;1277;76446;-74
2022/04/01 06:45:10;;;;;;;23.30;21.20;;;;;;;2.01;100.00;97020.40;105139;1277;70287;-73
2022/04/01 06:47:39;;;;;;;24.60;22.30;;;;;;;1.98;100.00;97018.90;104886;1277;72890;-77
2022/04/01 06:50:06;;;;;;;24.30;22.10;;;;;;;1.97;100.00;97016.29;104858;1271;61400;-74
2022/04/01 06:52:33;;;;;;;24.80;22.40;;;;;;;1.98;100.00;97017.13;104960;1271;62311;-74
2022/04/01 06:55:00;;;;;;;26.20;23.80;;;;;;;1.98;100.00;97016.60;105310;1271;75372;-73
2022/04/01 06:57:27;;;;;;;22.50;20.40;;;;;;;1.98;100.00;97013.63;105268;1270;70765;-73
2022/04/01 06:59:54;;;;;;;25.60;23.30;;;;;;;1.92;100.00;97016.27;105292;1271;74424;-73
2022/04/01 07:02:21;;;;;;;23.40;21.30;;;;;;;1.90;100.00;97018.34;105292;1271;61265;-71
2022/04/01 07:04:47;;;;;;;25.50;23.10;;;;;;;1.87;100.00;97016.58;105255;1271;61280;-74
2022/04/01 07:07:14;;;;;;;23.70;21.40;;;;;;;1.88;100.00;97022.27;105295;1271;75343;-74
2022/04/01 07:09:40;;;;;;;25.00;22.60;;;;;;;1.86;100.00;97021.19;105301;1271;69394;-74
2022/04/01 07:12:07;;;;;;;23.70;21.50;;;;;;;1.86;100.00;97021.20;105308;1271;73898;-74
2022/04/01 07:14:35;;;;;;;23.00;20.80;;;;;;;1.84;100.00;97022.38;105002;1271;61319;-74
2022/04/01 07:17:01;;;;;;;21.10;19.10;;;;;;;1.84;100.00;97023.61;105303;1268;61219;-72
2022/04/01 07:19:28;;;;;;;25.20;22.90;;;;;;;1.85;100.00;97026.72;105210;1271;74268;-74
2022/04/01 07:21:56;;;;;;;26.90;24.30;;;;;;;1.87;100.00;97027.98;105303;1268;69671;-76
2022/04/01 07:24:22;;;;;;;25.90;23.50;;;;;;;1.87;100.00;97026.95;105277;1269;74486;-80
2022/04/01 07:26:49;;;;;;;30.50;27.60;;;;;;;1.89;100.00;97028.20;105357;1268;61301;-75
2022/04/01 07:29:16;;;;;;;31.50;28.30;;;;;;;1.87;100.00;97027.78;105295;1271;62033;-75
2022/04/01 07:34:38;;;;;;;44.40;39.40;;;;;;;1.80;100.00;97025.30;105331;1269;69540;-74
2022/04/01 07:37:05;;;;;;;43.30;38.70;;;;;;;1.79;100.00;97030.23;105206;1269;74412;-73
2022/04/01 07:39:32;;;;;;;44.60;40.20;;;;;;;1.77;100.00;97027.92;105336;1269;61373;-72
2022/04/01 07:41:59;;;;;;;43.20;38.70;;;;;;;1.72;100.00;97027.83;105353;1270;61259;-72
2022/04/01 07:44:26;;;;;;;43.40;38.90;;;;;;;1.71;100.00;97031.23;105069;1271;75410;-74
2022/04/01 07:46:53;;;;;;;36.20;32.30;;;;;;;1.71;100.00;97028.27;105240;1271;69440;-73
2022/04/01 07:49:20;;;;;;;38.80;34.80;;;;;;;1.71;100.00;97029.69;105047;1271;72828;-73
2022/04/01 07:51:47;;;;;;;38.90;34.70;;;;;;;1.67;100.00;97037.11;105065;1272;61503;-74
2022/04/01 07:54:15;;;;;;;37.00;33.10;;;;;;;1.66;100.00;97035.60;105357;1269;61259;-73
2022/04/01 07:56:42;;;;;;;34.30;30.70;;;;;;;1.68;100.00;97036.33;105294;1268;76503;-73
2022/04/01 07:59:10;;;;;;;32.30;29.00;;;;;;;1.68;100.00;97039.85;105323;1269;69121;-73
2022/04/01 08:01:37;;;;;;;30.50;27.40;;;;;;;1.68;100.00;97041.06;105247;1274;72869;-72
2022/04/01 08:04:04;;;;;;;30.40;27.20;;;;;;;1.68;100.00;97037.95;105326;1269;61281;-73
2022/04/01 08:06:30;;;;;;;29.70;26.60;;;;;;;1.68;100.00;97038.98;105289;1268;61521;-73
2022/04/01 08:08:58;;;;;;;29.40;26.50;;;;;;;1.68;100.00;97040.02;105354;1269;75599;-74
2022/04/01 08:11:26;;;;;;;26.80;24.20;;;;;;;1.65;100.00;97042.69;105513;1269;69343;-73
2022/04/01 08:13:53;;;;;;;27.90;25.00;;;;;;;1.59;100.00;97043.23;105279;1269;74486;-73
2022/04/01 08:16:21;;;;;;;28.80;25.90;;;;;;;1.53;100.00;97048.67;105817;1268;61313;-73
2022/04/01 08:18:48;;;;;;;26.70;24.10;;;;;;;1.50;100.00;97053.57;105188;1271;61312;-72
2022/04/01 08:21:15;;;;;;;26.10;23.50;;;;;;;1.49;100.00;97058.34;105316;1269;76515;-72
2022/04/01 08:23:42;;;;;;;23.40;21.10;;;;;;;1.48;100.00;97054.04;105263;1271;70396;-72
2022/04/01 08:26:09;;;;;;;24.10;21.90;;;;;;;1.46;100.00;97057.81;105297;1269;73504;-72
2022/04/01 08:28:36;;;;;;;25.40;22.90;;;;;;;1.46;100.00;97056.10;105279;1269;61213;-72
2022/04/01 08:31:03;;;;;;;26.40;23.90;;;;;;;1.48;100.00;97057.33;105268;1269;61371;-76
2022/04/01 08:33:30;;;;;;;26.90;24.40;;;;;;;1.53;100.00;97053.73;105341;1271;76374;-75
2022/04/01 08:35:57;;;;;;;26.50;24.00;;;;;;;1.58;100.00;97058.00;105360;1268;69307;-75
2022/04/01 08:38:23;;;;;;;23.80;21.50;;;;;;;1.66;100.00;97053.63;105340;1269;73539;-77
2022/04/01 08:40:51;;;;;;;22.10;20.00;;;;;;;1.76;100.00;97055.64;104551;1268;1003950;-76
2022/04/01 08:43:26;;;;;;;18.60;16.80;;;;;;;1.86;100.00;97050.59;104993;1274;61372;-74
2022/04/01 08:45:54;;;;;;;18.20;16.40;;;;;;;1.97;100.00;97054.13;105163;1274;76665;-74
2022/04/01 08:48:21;;;;;;;19.00;17.20;;;;;;;2.01;100.00;97053.38;105019;1274;69307;-76
2022/04/01 08:50:48;;;;;;;19.10;17.30;;;;;;;2.04;100.00;97057.39;105029;1274;74790;-73
2022/04/01 08:53:14;;;;;;;19.10;17.30;;;;;;;2.06;100.00;97061.45;105013;1274;61438;-73
2022/04/01 08:55:45;;;;;;;18.20;16.40;;;;;;;2.10;100.00;97068.88;105011;1274;61167;-73
2022/04/01 08:58:12;;;;;;;16.10;14.60;;;;;;;2.19;100.00;97063.79;105024;1274;75394;-74
2022/04/01 09:00:39;;;;;;;15.90;14.40;;;;;;;2.29;100.00;97064.02;105017;1274;69385;-74
2022/04/01 09:03:08;;;;;;;14.60;13.40;;;;;;;2.36;100.00;97058.66;105005;1274;74450;-73
2022/04/01 09:05:35;;;;;;;15.20;13.90;;;;;;;2.49;100.00;97059.59;105002;1274;61460;-73
2022/04/01 09:08:06;;;;;;;13.70;12.60;;;;;;;2.59;100.00;97059.62;105016;1274;61262;-72
2022/04/01 09:10:54;;;;;;;16.70;15.10;;;;;;;2.75;100.00;97063.27;104771;1274;75279;-73
2022/04/01 09:13:23;;;;;;;14.50;13.10;;;;;;;3.02;100.00;97066.00;105015;1274;69684;-72
2022/04/01 09:15:50;;;;;;;14.10;12.80;;;;;;;3.19;100.00;97069.25;105030;1271;73030;-72
2022/04/01 09:18:37;;;;;;;15.30;13.70;;;;;;;3.37;100.00;97067.83;105308;1271;61285;-73
2022/04/01 09:21:05;;;;;;;15.80;14.30;;;;;;;3.66;100.00;97073.77;105348;1271;61252;-72
2022/04/01 09:23:32;;;;;;;14.70;13.30;;;;;;;3.81;100.00;97076.55;105646;1271;75135;-74
2022/04/01 09:25:59;;;;;;;13.80;12.60;;;;;;;3.92;100.00;97079.45;105331;1271;70349;-73
2022/04/01 09:28:38;;;;;;;15.60;14.30;;;;;;;3.96;100.00;97078.52;105048;1271;73338;-72
2022/04/01 09:31:14;;;;;;;16.60;15.20;;;;;;;3.90;100.00;97080.98;105355;1271;61263;-72
2022/04/01 09:33:45;;;;;;;17.20;15.70;;;;;;;3.92;100.00;97079.27;105316;1268;62345;-74
2022/04/01 09:36:15;;;;;;;16.20;14.80;;;;;;;3.94;100.00;97082.14;105286;1271;76403;-73
2022/04/01 09:38:53;;;;;;;18.90;17.20;;;;;;;3.93;100.00;97080.08;105435;1271;70788;-71
2022/04/01 09:41:19;;;;;;;17.40;15.80;;;;;;;3.98;100.00;97076.77;105436;1271;73434;-74
2022/04/01 09:43:47;;;;;;;16.90;15.50;;;;;;;3.99;100.00;97077.27;104822;1271;61165;-72
2022/04/01 09:46:25;;;;;;;16.60;15.20;;;;;;;3.94;100.00;97081.23;104881;1271;62571;-73
2022/04/01 09:48:58;;;;;;;17.00;15.60;;;;;;;3.90;100.00;97082.23;105131;1271;75476;-74
2022/04/01 09:51:33;;;;;;;17.60;16.10;;;;;;;3.80;100.00;97081.73;105065;1271;69359;-72
2022/04/01 09:54:02;;;;;;;19.30;17.60;;;;;;;3.65;100.00;97080.68;104913;1271;73118;-73
2022/04/01 09:56:56;;;;;;;17.30;15.80;;;;;;;3.68;100.00;97080.42;105473;1271;61287;-73
2022/04/01 09:59:24;;;;;;;19.30;17.60;;;;;;;3.89;100.00;97080.92;104651;1280;61181;-72
2022/04/01 10:01:51;;;;;;;19.10;17.40;;;;;;;4.12;100.00;97077.52;104433;1280;75421;-71
2022/04/01 10:04:18;;;;;;;19.00;17.50;;;;;;;4.29;100.00;97075.59;104644;1278;69437;-72
2022/04/01 10:06:46;;;;;;;21.10;19.30;;;;;;;4.49;100.00;97073.80;104432;1280;74006;-72
2022/04/01 10:09:13;;;;;;;20.40;18.70;;;;;;;4.67;100.00;97069.85;104642;1278;61469;-72
2022/04/01 10:11:42;;;;;;;19.40;17.70;;;;;;;4.85;100.00;97070.09;104786;1278;61471;-74
2022/04/01 10:14:18;;;;;;;21.00;19.00;;;;;;;4.95;100.00;97072.86;104848;1280;76307;-72
2022/04/01 10:16:46;;;;;;;19.40;17.60;;;;;;;5.04;100.00;97071.81;104907;1278;70835;-72
2022/04/01 10:19:17;;;;;;;20.60;18.80;;;;;;;4.98;100.00;97075.98;105063;1278;74789;-72
2022/04/01 10:21:45;;;;;;;19.50;17.70;;;;;;;4.92;100.00;97075.73;105138;1278;61397;-72
2022/04/01 10:24:27;;;;;;;21.30;19.40;;;;;;;4.80;100.00;97080.86;105348;1278;61276;-73
2022/04/01 10:27:03;;;;;;;20.60;18.80;;;;;;;4.59;100.00;97075.35;105364;1279;75472;-73
2022/04/01 10:29:31;;;;;;;20.90;19.00;;;;;;;4.48;100.00;97077.25;105468;1280;69202;-72
2022/04/01 10:32:25;;;;;;;22.00;20.00;;;;;;;4.28;100.00;97080.25;106609;1278;71886;-73
2022/04/01 10:35:01;;;;;;;22.70;20.60;;;;;;;3.95;100.00;97090.65;107976;1278;59464;-71
2022/04/01 10:37:30;;;;;;;22.60;20.50;;;;;;;3.77;100.00;97086.18;108356;1270;61334;-72
2022/04/01 10:40:06;;;;;;;20.30;18.30;;;;;;;3.67;100.00;97085.40;108597;1268;75440;-74
2022/04/01 10:42:38;;;;;;;19.70;18.00;;;;;;;3.62;100.00;97087.17;108106;1270;69435;-75
2022/04/01 10:45:26;;;;;;;19.50;17.60;;;;;;;3.64;100.00;97087.40;105465;1271;73525;-74
2022/04/01 10:53:39;;;;;;;19.10;17.40;;;;;;;3.47;100.00;97088.94;105387;1271;76349;-74
2022/04/01 10:56:23;;;;;;;19.00;17.30;;;;;;;3.28;100.00;97090.20;105354;1271;68384;-75
2022/04/01 10:59:25;;;;;;;18.90;17.10;;;;;;;3.13;100.00;97094.60;105335;1271;73449;-74
2022/04/01 11:01:52;;;;;;;19.50;17.70;;;;;;;3.04;100.00;97100.61;105013;1271;61358;-73
2022/04/01 11:04:18;;;;;;;19.40;17.60;;;;;;;3.04;100.00;97097.27;105299;1271;61246;-73
2022/04/01 11:07:11;;;;;;;20.60;18.80;;;;;;;3.11;100.00;97100.16;105407;1271;61278;-72
2022/04/01 11:09:49;;;;;;;19.40;17.60;;;;;;;3.23;100.00;97097.60;105273;1271;70515;-73
2022/04/01 11:12:19;;;;;;;21.10;19.20;;;;;;;3.30;100.00;97101.89;105417;1271;73352;-72
2022/04/01 11:14:58;;;;;;;22.20;20.10;;;;;;;3.33;100.00;97105.14;105267;1271;61271;-75
2022/04/01 11:17:34;;;;;;;24.30;22.10;;;;;;;3.37;100.00;97107.00;105353;1271;61252;-73
2022/04/01 11:20:09;;;;;;;23.90;21.60;;;;;;;3.46;100.00;97103.60;105027;1271;74928;-73
2022/04/01 11:22:54;;;;;;;23.70;21.50;;;;;;;3.59;100.00;97104.44;105328;1271;70368;-76
2022/04/01 11:25:32;;;;;;;24.90;22.40;;;;;;;3.64;100.00;97107.09;105304;1271;74091;-73
2022/04/01 11:28:02;;;;;;;24.80;22.40;;;;;;;3.65;100.00;97108.94;105294;1271;61271;-75
2022/04/01 11:30:32;;;;;;;25.70;23.20;;;;;;;3.68;100.00;97113.09;105322;1271;61956;-74
2022/04/01 11:33:02;;;;;;;21.50;19.60;;;;;;;3.75;100.00;97114.94;105310;1271;76455;-74
2022/04/01 11:35:31;;;;;;;22.30;20.20;;;;;;;3.70;100.00;97117.74;105486;1271;70791;-72
2022/04/01 11:37:59;;;;;;;23.70;21.40;;;;;;;3.66;100.00;97118.67;105050;1271;74529;-72